createdAt,value
2023-02-17T00:02:38.091Z,6.09
2023-02-17T00:06:39.685Z,6.10
2023-02-17T00:10:42.269Z,6.14
2023-02-17T00:14:43.961Z,6.17
2023-02-17T00:18:46.416Z,6.21
2023-02-17T00:22:48.803Z,6.25
2023-02-17T00:26:50.909Z,6.28
2023-02-17T00:30:52.930Z,6.31
2023-02-17T00:34:56.305Z,6.36
2023-02-17T00:38:58.192Z,6.40
2023-02-17T00:43:00.118Z,6.40
2023-02-17T00:47:02.444Z,6.39
2023-02-17T00:51:04.777Z,6.41
2023-02-17T00:55:06.690Z,6.48
2023-02-17T00:59:09.298Z,6.57
2023-02-17T01:03:11.148Z,6.66
2023-02-17T01:07:13.748Z,6.71
2023-02-17T01:11:26.935Z,6.74
2023-02-17T01:15:30.806Z,6.76
2023-02-17T01:19:33.273Z,6.80
2023-02-17T01:23:34.899Z,6.83
2023-02-17T01:27:36.795Z,6.92
2023-02-17T01:31:39.885Z,7.04
2023-02-17T01:35:41.954Z,7.09
2023-02-17T01:39:44.147Z,7.14
2023-02-17T01:44:09.898Z,7.19
2023-02-17T01:48:16.276Z,7.29
2023-02-17T01:52:23.622Z,7.36
2023-02-17T01:56:26.487Z,7.38
2023-02-17T02:00:31.291Z,7.34
2023-02-17T02:04:37.328Z,7.28
2023-02-17T02:09:31.464Z,7.26
2023-02-17T02:13:33.533Z,7.20
2023-02-17T02:17:48.395Z,7.21
2023-02-17T02:21:58.826Z,7.23
2023-02-17T02:26:03.706Z,7.28
2023-02-17T02:30:48.620Z,7.37
2023-02-17T02:35:00.700Z,7.46
2023-02-17T02:39:13.570Z,7.50
2023-02-17T02:43:16.854Z,7.54
2023-02-17T02:47:47.269Z,7.56
2023-02-17T02:52:10.128Z,7.53
2023-02-17T02:56:35.732Z,7.48
2023-02-17T03:00:53.358Z,7.42
2023-02-17T03:05:23.373Z,7.36
2023-02-17T03:09:27.059Z,7.37
2023-02-17T03:13:28.907Z,7.36
2023-02-17T03:17:32.587Z,7.36
2023-02-17T03:21:41.296Z,7.31
2023-02-17T03:25:44.507Z,7.21
2023-02-17T03:29:46.350Z,7.20
2023-02-17T03:33:48.927Z,7.17
2023-02-17T03:37:50.533Z,7.12
2023-02-17T03:41:52.334Z,7.15
2023-02-17T03:45:55.091Z,7.18
2023-02-17T03:49:56.744Z,7.20
2023-02-17T03:53:58.916Z,7.26
2023-02-17T03:58:01.306Z,7.39
2023-02-17T04:02:03.582Z,7.56
2023-02-17T04:06:06.555Z,7.71
2023-02-17T04:10:09.681Z,7.82
2023-02-17T04:14:11.437Z,7.97
2023-02-17T04:18:13.658Z,8.08
2023-02-17T04:22:16.138Z,8.22
2023-02-17T04:26:17.954Z,8.34
2023-02-17T04:30:19.918Z,8.41
2023-02-17T04:34:21.737Z,8.41
2023-02-17T04:38:23.514Z,8.40
2023-02-17T04:42:25.348Z,8.37
2023-02-17T04:46:29.009Z,8.28
2023-02-17T04:50:32.209Z,8.22
2023-02-17T04:54:33.964Z,8.18
2023-02-17T04:58:35.955Z,8.15
2023-02-17T05:02:38.168Z,8.13
2023-02-17T05:06:40.599Z,8.13
2023-02-17T05:10:43.559Z,8.11
2023-02-17T05:14:46.299Z,8.12
2023-02-17T05:18:48.162Z,8.14
2023-02-17T05:22:50.061Z,8.12
2023-02-17T05:26:51.727Z,8.13
2023-02-17T05:30:53.626Z,8.14
2023-02-17T05:34:55.422Z,8.12
2023-02-17T05:38:57.618Z,8.06
2023-02-17T05:42:59.621Z,8.01
2023-02-17T05:47:02.905Z,7.97
2023-02-17T05:51:05.011Z,7.89
2023-02-17T05:55:07.302Z,7.78
2023-02-17T05:59:09.160Z,7.74
2023-02-17T06:03:11.203Z,7.77
2023-02-17T06:07:13.514Z,7.82
2023-02-17T06:11:15.383Z,7.86
2023-02-17T06:15:17.268Z,7.89
2023-02-17T06:19:19.017Z,7.91
2023-02-17T06:23:20.849Z,7.93
2023-02-17T06:27:22.721Z,8.00
2023-02-17T06:31:24.697Z,7.95
2023-02-17T06:35:26.683Z,7.96
2023-02-17T06:39:28.908Z,7.98
2023-02-17T06:43:30.669Z,7.95
2023-02-17T06:47:33.150Z,7.94
2023-02-17T06:51:35.021Z,7.93
2023-02-17T06:55:38.931Z,7.90
2023-02-17T06:59:43.932Z,7.95
2023-02-17T07:03:46.119Z,7.96
2023-02-17T07:07:47.928Z,7.94
2023-02-17T07:11:50.612Z,7.94
2023-02-17T07:15:52.385Z,7.92
2023-02-17T07:19:54.331Z,7.96
2023-02-17T07:23:56.159Z,8.02
2023-02-17T07:27:59.392Z,8.06
2023-02-17T07:32:01.803Z,8.11
2023-02-17T07:36:08.498Z,8.17
2023-02-17T07:40:10.835Z,8.20
2023-02-17T07:44:13.056Z,8.28
2023-02-17T07:48:16.086Z,8.33
2023-02-17T07:52:18.285Z,8.41
2023-02-17T07:56:21.602Z,8.46
2023-02-17T08:00:23.489Z,8.55
2023-02-17T08:04:29.574Z,8.62
2023-02-17T08:08:50.128Z,8.70
2023-02-17T08:13:10.251Z,8.78
2023-02-17T08:17:12.496Z,8.84
2023-02-17T08:21:14.424Z,8.98
2023-02-17T08:25:16.232Z,9.08
2023-02-17T08:29:19.692Z,9.25
2023-02-17T08:33:21.602Z,9.55
2023-02-17T08:37:25.603Z,9.78
2023-02-17T08:41:29.978Z,9.95
2023-02-17T08:45:32.424Z,10.09
2023-02-17T08:49:35.276Z,10.30
2023-02-17T08:53:37.005Z,10.48
2023-02-17T08:57:38.870Z,10.59
2023-02-17T09:01:41.880Z,10.68
2023-02-17T09:05:43.805Z,10.68
2023-02-17T09:09:45.530Z,10.71
2023-02-17T09:13:47.402Z,10.67
2023-02-17T09:17:49.258Z,10.62
2023-02-17T09:21:51.713Z,10.58
2023-02-17T09:26:12.415Z,10.56
2023-02-17T09:30:14.587Z,10.58
2023-02-17T09:34:16.250Z,10.63
2023-02-17T09:38:17.857Z,10.71
2023-02-17T09:42:22.678Z,10.76
2023-02-17T09:46:32.560Z,10.83
2023-02-17T09:50:45.256Z,10.86
2023-02-17T09:55:05.352Z,10.90
2023-02-17T09:59:45.756Z,10.91
2023-02-17T10:03:55.520Z,10.96
2023-02-17T10:08:04.394Z,11.03
2023-02-17T10:12:13.214Z,11.08
2023-02-17T10:16:23.015Z,11.17
2023-02-17T10:20:30.719Z,11.26
2023-02-17T10:24:32.703Z,11.33
2023-02-17T10:28:50.298Z,11.35
2023-02-17T10:33:10.654Z,11.36
2023-02-17T10:37:31.283Z,11.35
2023-02-17T10:41:36.040Z,11.29
2023-02-17T10:45:42.644Z,11.31
2023-02-17T10:49:49.050Z,11.31
2023-02-17T10:54:11.162Z,11.29
2023-02-17T10:58:13.519Z,11.23
2023-02-17T11:02:38.318Z,11.27
2023-02-17T11:06:54.526Z,11.37
2023-02-17T11:11:06.497Z,11.47
2023-02-17T11:15:17.755Z,11.57
2023-02-17T11:19:25.403Z,11.59
2023-02-17T11:23:27.086Z,11.52
2023-02-17T11:27:28.944Z,11.56
2023-02-17T11:31:31.120Z,11.54
2023-02-17T11:35:35.721Z,11.59
2023-02-17T11:39:43.814Z,11.57
2023-02-17T11:43:59.373Z,11.66
2023-02-17T11:48:14.157Z,11.70
2023-02-17T11:52:32.322Z,11.71
2023-02-17T11:56:40.370Z,11.72
2023-02-17T12:00:48.071Z,11.75
2023-02-17T12:04:59.855Z,11.81
2023-02-17T12:09:33.796Z,11.78
2023-02-17T12:13:41.271Z,11.80
2023-02-17T12:17:56.682Z,11.80
2023-02-17T12:22:23.382Z,11.90
2023-02-17T12:26:38.904Z,11.96
2023-02-17T12:31:11.404Z,12.01
2023-02-17T12:35:21.047Z,12.05
2023-02-17T12:39:36.571Z,12.18
2023-02-17T12:43:49.532Z,12.28
2023-02-17T12:48:08.536Z,12.35
2023-02-17T12:52:19.218Z,12.43
2023-02-17T12:56:27.791Z,12.48
2023-02-17T13:00:50.082Z,12.46
2023-02-17T13:04:54.585Z,12.44
2023-02-17T13:09:02.584Z,12.42
2023-02-17T13:13:04.295Z,12.45
2023-02-17T13:17:05.920Z,12.36
2023-02-17T13:21:20.047Z,12.33
2023-02-17T13:25:31.390Z,12.25
2023-02-17T13:29:35.268Z,12.22
2023-02-17T13:33:43.511Z,12.21
2023-02-17T13:37:45.940Z,12.08
2023-02-17T13:41:48.628Z,11.97
2023-02-17T13:46:00.102Z,11.93
2023-02-17T13:50:02.127Z,11.95
2023-02-17T13:54:06.553Z,11.95
2023-02-17T13:58:10.390Z,11.99
2023-02-17T14:02:35.081Z,12.06
2023-02-17T14:06:39.838Z,12.11
2023-02-17T14:10:41.659Z,12.12
2023-02-17T14:14:43.598Z,12.18
2023-02-17T14:18:45.265Z,12.25
2023-02-17T14:22:53.258Z,12.27
2023-02-17T14:27:08.091Z,12.30
2023-02-17T14:31:12.127Z,12.31
2023-02-17T14:35:14.065Z,12.35
2023-02-17T14:39:15.900Z,12.38
2023-02-17T14:43:17.655Z,12.49
2023-02-17T14:47:19.409Z,12.54
2023-02-17T14:51:24.915Z,12.70
2023-02-17T14:55:29.690Z,12.78
2023-02-17T14:59:31.500Z,12.93
2023-02-17T15:03:33.590Z,13.05
2023-02-17T15:07:35.684Z,13.18
2023-02-17T15:11:38.885Z,13.28
2023-02-17T15:15:44.328Z,13.30
2023-02-17T15:19:48.753Z,13.40
2023-02-17T15:23:51.141Z,13.50
2023-02-17T15:27:52.986Z,13.60
2023-02-17T15:31:56.524Z,13.64
2023-02-17T15:35:58.439Z,13.69
2023-02-17T15:40:00.362Z,13.78
2023-02-17T15:44:05.737Z,13.81
2023-02-17T15:48:13.499Z,13.86
2023-02-17T15:52:15.552Z,13.86
2023-02-17T15:56:21.946Z,13.86
2023-02-17T16:00:26.855Z,13.83
2023-02-17T16:04:28.669Z,13.86
2023-02-17T16:08:30.373Z,13.89
2023-02-17T16:12:32.436Z,13.84
2023-02-17T16:16:35.408Z,13.77
2023-02-17T16:20:37.151Z,13.72
2023-02-17T16:24:38.842Z,13.72
2023-02-17T16:28:40.743Z,13.65
2023-02-17T16:32:42.437Z,13.67
2023-02-17T16:36:44.534Z,13.67
2023-02-17T16:40:48.747Z,13.70
2023-02-17T16:44:51.040Z,13.76
2023-02-17T16:48:52.860Z,13.71
2023-02-17T16:52:58.595Z,13.70
2023-02-17T16:57:01.238Z,13.70
2023-02-17T17:01:03.985Z,13.64
2023-02-17T17:05:07.173Z,13.62
2023-02-17T17:09:16.216Z,13.61
2023-02-17T17:13:18.194Z,13.58
2023-02-17T17:17:20.265Z,13.56
2023-02-17T17:21:22.126Z,13.55
2023-02-17T17:25:23.951Z,13.53
2023-02-17T17:29:25.719Z,13.49
2023-02-17T17:33:27.574Z,13.50
2023-02-17T17:37:29.513Z,13.50
2023-02-17T17:41:31.747Z,13.52
2023-02-17T17:45:33.960Z,13.52
2023-02-17T17:49:35.882Z,13.52
2023-02-17T17:53:37.925Z,13.50
2023-02-17T17:57:40.421Z,13.49
2023-02-17T18:01:45.117Z,13.54
2023-02-17T18:05:48.037Z,13.53
2023-02-17T18:09:49.797Z,13.62
2023-02-17T18:13:54.141Z,13.60
2023-02-17T18:17:56.979Z,13.61
2023-02-17T18:21:58.690Z,13.63
2023-02-17T18:26:00.481Z,13.62
2023-02-17T18:30:03.022Z,13.58
2023-02-17T18:34:04.936Z,13.61
2023-02-17T18:38:06.776Z,13.63
2023-02-17T18:42:09.640Z,13.61
2023-02-17T18:46:11.576Z,13.60
2023-02-17T18:50:15.052Z,13.58
2023-02-17T18:54:16.930Z,13.57
2023-02-17T18:58:18.764Z,13.56
2023-02-17T19:02:21.459Z,13.58
2023-02-17T19:06:25.774Z,13.53
2023-02-17T19:10:27.547Z,13.47
2023-02-17T19:14:32.887Z,13.41
2023-02-17T19:18:34.583Z,13.28
2023-02-17T19:22:36.911Z,12.99
2023-02-17T19:26:39.570Z,12.66
2023-02-17T19:30:41.364Z,12.31
2023-02-17T19:34:43.137Z,12.08
2023-02-17T19:38:45.482Z,12.00
2023-02-17T19:42:48.275Z,11.97
2023-02-17T19:46:50.266Z,12.05
2023-02-17T19:50:58.124Z,12.08
2023-02-17T19:55:02.110Z,12.02
2023-02-17T19:59:04.288Z,11.96
2023-02-17T20:03:06.453Z,11.99
2023-02-17T20:07:09.406Z,12.08
2023-02-17T20:11:19.746Z,12.17
2023-02-17T20:15:21.788Z,12.19
2023-02-17T20:19:23.553Z,12.20
2023-02-17T20:23:25.261Z,12.14
2023-02-17T20:27:26.962Z,12.20
2023-02-17T20:31:28.894Z,12.25
2023-02-17T20:35:34.704Z,12.32
2023-02-17T20:39:37.976Z,12.29
2023-02-17T20:43:40.054Z,12.26
2023-02-17T20:47:42.324Z,12.23
2023-02-17T20:51:44.528Z,12.14
2023-02-17T20:55:46.543Z,12.01
2023-02-17T20:59:48.460Z,12.05
2023-02-17T21:03:50.759Z,11.98
2023-02-17T21:07:52.953Z,11.93
2023-02-17T21:11:54.800Z,11.88
2023-02-17T21:15:56.487Z,11.81
2023-02-17T21:19:58.183Z,11.88
2023-02-17T21:23:59.916Z,11.97
2023-02-17T21:28:01.560Z,11.98
2023-02-17T21:32:06.754Z,11.96
2023-02-17T21:36:11.192Z,11.98
2023-02-17T21:40:13.137Z,11.93
2023-02-17T21:44:33.268Z,11.93
2023-02-17T21:48:34.951Z,11.99
2023-02-17T21:52:36.711Z,12.06
2023-02-17T21:56:38.384Z,12.11
2023-02-17T22:00:40.495Z,12.18
2023-02-17T22:04:42.300Z,12.04
2023-02-17T22:18:15.388Z,10.75
2023-02-17T22:22:19.547Z,10.55
2023-02-17T22:31:35.410Z,10.21
2023-02-17T22:36:27.346Z,10.11
2023-02-17T22:40:35.757Z,10.01
2023-02-17T23:16:48.469Z,9.85
2023-02-17T23:20:53.055Z,9.76
2023-02-17T23:24:58.871Z,9.54
2023-02-17T23:29:01.020Z,9.38
2023-02-17T23:33:03.350Z,9.35
2023-02-17T23:37:05.676Z,9.47
2023-02-17T23:41:07.645Z,9.53
2023-02-17T23:45:10.576Z,9.46
2023-02-17T23:49:17.380Z,9.33
2023-02-17T23:53:19.286Z,9.27
2023-02-17T23:57:21.095Z,9.31
